In Rescue
 
Open Full Screen Window  High Contrast Mode
Wind Gusting 00 knots
04
July 13, 2020 9:15 PM PDT
Present Weather: Mist
Weather Information
Wind Direction
  180 °
Wind Speed
  04 kt (5 mph)
Wind Gust
  00 kt (0 mph)
Altimeter
29.94 in
Visibility
5 SM
Temperature
13° C
55° F
Dewpoint
11° C
52° F
Humidity
88%
1hr Rain Fall
00.00 in.
24hr Rain Fall
00.00 in.
Sky Condition
Overcast @ 1,100 ft
MVFR

METAR KHAF 140415Z AUTO 18004KT 5SM BR OVC011 13/11 A2994 RMK AO2

FAA Disclaimer: The data displayed is for advisory purposes only and is not to be used for flight planning or operations.